sensor_id;sensor_type;location;lat;lon;timestamp;P1;durP1;ratioP1;P2;durP2;ratioP2
71763;SDS011;59602;52.142;5.408;2023-02-23T00:01:09;45.15;;;16.42;;
71763;SDS011;59602;52.142;5.408;2023-02-23T00:03:38;43.08;;;16.25;;
71763;SDS011;59602;52.142;5.408;2023-02-23T00:06:06;42.88;;;16.17;;
71763;SDS011;59602;52.142;5.408;2023-02-23T00:08:34;41.47;;;16.23;;
71763;SDS011;59602;52.142;5.408;2023-02-23T00:11:03;42.58;;;16.23;;
71763;SDS011;59602;52.142;5.408;2023-02-23T00:13:32;42.72;;;16.60;;
71763;SDS011;59602;52.142;5.408;2023-02-23T00:16:03;44.45;;;18.02;;
71763;SDS011;59602;52.142;5.408;2023-02-23T00:18:31;42.00;;;17.52;;
71763;SDS011;59602;52.142;5.408;2023-02-23T00:21:11;43.67;;;16.73;;
71763;SDS011;59602;52.142;5.408;2023-02-23T00:23:41;40.80;;;16.58;;
71763;SDS011;59602;52.142;5.408;2023-02-23T00:26:08;40.67;;;16.20;;
71763;SDS011;59602;52.142;5.408;2023-02-23T00:28:35;47.97;;;17.02;;
71763;SDS011;59602;52.142;5.408;2023-02-23T00:31:01;50.10;;;18.45;;
71763;SDS011;59602;52.142;5.408;2023-02-23T00:33:29;45.67;;;17.00;;
71763;SDS011;59602;52.142;5.408;2023-02-23T00:36:02;48.72;;;17.65;;
71763;SDS011;59602;52.142;5.408;2023-02-23T00:38:31;44.22;;;16.88;;
71763;SDS011;59602;52.142;5.408;2023-02-23T00:41:04;43.72;;;16.65;;
71763;SDS011;59602;52.142;5.408;2023-02-23T00:43:33;47.45;;;18.08;;
71763;SDS011;59602;52.142;5.408;2023-02-23T00:46:01;46.43;;;17.97;;
71763;SDS011;59602;52.142;5.408;2023-02-23T00:48:31;47.28;;;16.88;;
71763;SDS011;59602;52.142;5.408;2023-02-23T00:51:00;54.58;;;18.58;;
71763;SDS011;59602;52.142;5.408;2023-02-23T00:53:28;45.63;;;17.55;;
71763;SDS011;59602;52.142;5.408;2023-02-23T00:55:55;47.38;;;17.73;;
71763;SDS011;59602;52.142;5.408;2023-02-23T00:58:22;46.57;;;17.17;;
71763;SDS011;59602;52.142;5.408;2023-02-23T01:00:50;47.75;;;18.15;;
71763;SDS011;59602;52.142;5.408;2023-02-23T01:03:17;48.42;;;18.35;;
71763;SDS011;59602;52.142;5.408;2023-02-23T01:05:44;46.25;;;17.90;;
71763;SDS011;59602;52.142;5.408;2023-02-23T01:08:15;45.95;;;17.63;;
71763;SDS011;59602;52.142;5.408;2023-02-23T01:10:44;48.93;;;18.13;;
71763;SDS011;59602;52.142;5.408;2023-02-23T01:13:19;52.08;;;18.08;;
71763;SDS011;59602;52.142;5.408;2023-02-23T01:15:47;48.97;;;18.13;;
71763;SDS011;59602;52.142;5.408;2023-02-23T01:18:15;45.92;;;18.10;;
71763;SDS011;59602;52.142;5.408;2023-02-23T01:20:43;45.65;;;17.95;;
71763;SDS011;59602;52.142;5.408;2023-02-23T01:23:12;47.47;;;18.90;;
71763;SDS011;59602;52.142;5.408;2023-02-23T01:25:40;49.03;;;18.95;;
71763;SDS011;59602;52.142;5.408;2023-02-23T01:28:09;48.55;;;17.60;;
71763;SDS011;59602;52.142;5.408;2023-02-23T01:30:37;46.65;;;18.38;;
71763;SDS011;59602;52.142;5.408;2023-02-23T01:33:06;49.38;;;18.95;;
71763;SDS011;59602;52.142;5.408;2023-02-23T01:35:33;49.43;;;18.97;;
71763;SDS011;59602;52.142;5.408;2023-02-23T01:38:00;49.67;;;18.63;;
71763;SDS011;59602;52.142;5.408;2023-02-23T01:40:27;45.20;;;18.10;;
71763;SDS011;59602;52.142;5.408;2023-02-23T01:42:55;48.95;;;19.05;;
71763;SDS011;59602;52.142;5.408;2023-02-23T01:45:26;51.08;;;19.40;;
71763;SDS011;59602;52.142;5.408;2023-02-23T01:47:56;49.83;;;18.17;;
71763;SDS011;59602;52.142;5.408;2023-02-23T01:50:28;48.33;;;18.27;;
71763;SDS011;59602;52.142;5.408;2023-02-23T01:53:01;48.95;;;19.08;;
71763;SDS011;59602;52.142;5.408;2023-02-23T01:55:28;47.55;;;18.10;;
71763;SDS011;59602;52.142;5.408;2023-02-23T01:57:57;45.97;;;18.35;;
71763;SDS011;59602;52.142;5.408;2023-02-23T02:00:30;49.83;;;18.77;;
71763;SDS011;59602;52.142;5.408;2023-02-23T02:03:02;46.13;;;18.38;;
71763;SDS011;59602;52.142;5.408;2023-02-23T02:05:34;48.67;;;19.50;;
71763;SDS011;59602;52.142;5.408;2023-02-23T02:08:04;47.35;;;18.50;;
71763;SDS011;59602;52.142;5.408;2023-02-23T02:10:33;43.42;;;17.30;;
71763;SDS011;59602;52.142;5.408;2023-02-23T02:13:06;45.60;;;17.57;;
71763;SDS011;59602;52.142;5.408;2023-02-23T02:15:37;50.97;;;19.05;;
71763;SDS011;59602;52.142;5.408;2023-02-23T02:18:25;45.80;;;17.92;;
71763;SDS011;59602;52.142;5.408;2023-02-23T02:23:47;47.30;;;17.92;;
71763;SDS011;59602;52.142;5.408;2023-02-23T02:26:38;48.73;;;17.73;;
71763;SDS011;59602;52.142;5.408;2023-02-23T02:29:11;46.75;;;18.65;;
71763;SDS011;59602;52.142;5.408;2023-02-23T02:34:41;47.90;;;18.10;;
71763;SDS011;59602;52.142;5.408;2023-02-23T02:37:29;50.42;;;18.83;;
71763;SDS011;59602;52.142;5.408;2023-02-23T02:45:29;46.67;;;16.88;;
71763;SDS011;59602;52.142;5.408;2023-02-23T02:48:09;53.63;;;18.55;;
71763;SDS011;59602;52.142;5.408;2023-02-23T02:53:13;48.80;;;18.07;;
71763;SDS011;59602;52.142;5.408;2023-02-23T02:55:46;49.40;;;19.20;;
71763;SDS011;59602;52.142;5.408;2023-02-23T02:58:14;49.15;;;19.30;;
71763;SDS011;59602;52.142;5.408;2023-02-23T03:00:44;52.50;;;18.48;;
71763;SDS011;59602;52.142;5.408;2023-02-23T03:03:34;59.47;;;19.60;;
71763;SDS011;59602;52.142;5.408;2023-02-23T03:06:32;48.37;;;17.83;;
71763;SDS011;59602;52.142;5.408;2023-02-23T03:09:33;49.10;;;18.77;;
71763;SDS011;59602;52.142;5.408;2023-02-23T03:15:51;50.35;;;17.98;;
71763;SDS011;59602;52.142;5.408;2023-02-23T03:21:53;49.63;;;17.60;;
71763;SDS011;59602;52.142;5.408;2023-02-23T03:24:50;47.08;;;18.08;;
71763;SDS011;59602;52.142;5.408;2023-02-23T03:30:38;47.75;;;17.60;;
71763;SDS011;59602;52.142;5.408;2023-02-23T03:33:36;49.60;;;18.15;;
71763;SDS011;59602;52.142;5.408;2023-02-23T03:36:28;49.63;;;17.13;;
71763;SDS011;59602;52.142;5.408;2023-02-23T03:39:19;52.13;;;18.67;;
71763;SDS011;59602;52.142;5.408;2023-02-23T03:42:14;49.38;;;17.23;;
71763;SDS011;59602;52.142;5.408;2023-02-23T03:45:05;45.72;;;16.90;;
71763;SDS011;59602;52.142;5.408;2023-02-23T03:47:54;46.97;;;17.70;;
71763;SDS011;59602;52.142;5.408;2023-02-23T03:50:50;46.00;;;17.07;;
71763;SDS011;59602;52.142;5.408;2023-02-23T03:53:46;45.20;;;17.90;;
71763;SDS011;59602;52.142;5.408;2023-02-23T03:56:38;46.60;;;17.20;;
71763;SDS011;59602;52.142;5.408;2023-02-23T03:59:29;43.60;;;16.90;;
71763;SDS011;59602;52.142;5.408;2023-02-23T04:02:18;45.90;;;16.42;;
71763;SDS011;59602;52.142;5.408;2023-02-23T04:05:06;47.90;;;17.20;;
71763;SDS011;59602;52.142;5.408;2023-02-23T04:07:55;41.35;;;15.50;;
71763;SDS011;59602;52.142;5.408;2023-02-23T04:10:47;46.10;;;16.52;;
71763;SDS011;59602;52.142;5.408;2023-02-23T04:13:38;48.60;;;17.35;;
71763;SDS011;59602;52.142;5.408;2023-02-23T04:16:07;45.47;;;16.40;;
71763;SDS011;59602;52.142;5.408;2023-02-23T04:18:35;46.13;;;17.10;;
71763;SDS011;59602;52.142;5.408;2023-02-23T04:21:04;46.72;;;17.35;;
71763;SDS011;59602;52.142;5.408;2023-02-23T04:23:31;43.63;;;17.10;;
71763;SDS011;59602;52.142;5.408;2023-02-23T04:25:59;43.05;;;15.93;;
71763;SDS011;59602;52.142;5.408;2023-02-23T04:28:26;47.75;;;16.75;;
71763;SDS011;59602;52.142;5.408;2023-02-23T04:30:53;43.97;;;15.97;;
71763;SDS011;59602;52.142;5.408;2023-02-23T04:33:20;45.10;;;16.98;;
71763;SDS011;59602;52.142;5.408;2023-02-23T04:35:47;46.70;;;15.88;;
71763;SDS011;59602;52.142;5.408;2023-02-23T04:38:14;44.42;;;17.17;;
71763;SDS011;59602;52.142;5.408;2023-02-23T04:40:41;44.22;;;16.42;;
71763;SDS011;59602;52.142;5.408;2023-02-23T04:43:08;45.07;;;17.60;;
71763;SDS011;59602;52.142;5.408;2023-02-23T04:45:37;42.40;;;16.08;;
71763;SDS011;59602;52.142;5.408;2023-02-23T04:48:04;44.05;;;17.60;;
71763;SDS011;59602;52.142;5.408;2023-02-23T04:50:30;40.42;;;14.35;;
71763;SDS011;59602;52.142;5.408;2023-02-23T04:52:57;46.17;;;16.52;;
71763;SDS011;59602;52.142;5.408;2023-02-23T04:55:24;44.67;;;17.43;;
71763;SDS011;59602;52.142;5.408;2023-02-23T04:57:51;45.25;;;16.08;;
71763;SDS011;59602;52.142;5.408;2023-02-23T05:00:23;44.25;;;17.30;;
71763;SDS011;59602;52.142;5.408;2023-02-23T05:02:49;50.80;;;17.95;;
71763;SDS011;59602;52.142;5.408;2023-02-23T05:05:16;49.95;;;18.48;;
71763;SDS011;59602;52.142;5.408;2023-02-23T05:07:43;48.33;;;18.90;;
71763;SDS011;59602;52.142;5.408;2023-02-23T05:10:10;47.45;;;17.73;;
71763;SDS011;59602;52.142;5.408;2023-02-23T05:12:39;49.05;;;17.08;;
71763;SDS011;59602;52.142;5.408;2023-02-23T05:15:05;47.20;;;18.13;;
71763;SDS011;59602;52.142;5.408;2023-02-23T05:17:32;46.97;;;17.45;;
71763;SDS011;59602;52.142;5.408;2023-02-23T05:19:59;47.50;;;16.63;;
71763;SDS011;59602;52.142;5.408;2023-02-23T05:22:25;47.13;;;16.90;;
71763;SDS011;59602;52.142;5.408;2023-02-23T05:24:52;49.17;;;17.20;;
71763;SDS011;59602;52.142;5.408;2023-02-23T05:27:21;49.30;;;17.85;;
71763;SDS011;59602;52.142;5.408;2023-02-23T05:29:48;47.10;;;16.75;;
71763;SDS011;59602;52.142;5.408;2023-02-23T05:32:14;46.57;;;17.10;;
71763;SDS011;59602;52.142;5.408;2023-02-23T05:34:41;51.35;;;17.52;;
71763;SDS011;59602;52.142;5.408;2023-02-23T05:37:09;46.78;;;16.80;;
71763;SDS011;59602;52.142;5.408;2023-02-23T05:39:35;51.92;;;17.13;;
71763;SDS011;59602;52.142;5.408;2023-02-23T05:42:02;48.00;;;17.50;;
71763;SDS011;59602;52.142;5.408;2023-02-23T05:44:28;49.70;;;18.17;;
71763;SDS011;59602;52.142;5.408;2023-02-23T05:46:55;49.08;;;17.02;;
71763;SDS011;59602;52.142;5.408;2023-02-23T05:49:22;44.15;;;15.95;;
71763;SDS011;59602;52.142;5.408;2023-02-23T05:51:49;51.65;;;17.75;;
71763;SDS011;59602;52.142;5.408;2023-02-23T05:54:15;48.95;;;17.92;;
71763;SDS011;59602;52.142;5.408;2023-02-23T05:56:43;48.67;;;18.70;;
71763;SDS011;59602;52.142;5.408;2023-02-23T05:59:10;51.97;;;17.33;;
71763;SDS011;59602;52.142;5.408;2023-02-23T06:01:38;48.10;;;16.20;;
71763;SDS011;59602;52.142;5.408;2023-02-23T06:04:05;51.88;;;17.67;;
71763;SDS011;59602;52.142;5.408;2023-02-23T06:06:33;47.17;;;17.60;;
71763;SDS011;59602;52.142;5.408;2023-02-23T06:09:01;45.50;;;16.57;;
71763;SDS011;59602;52.142;5.408;2023-02-23T06:11:29;44.60;;;15.65;;
71763;SDS011;59602;52.142;5.408;2023-02-23T06:13:56;48.88;;;17.38;;
71763;SDS011;59602;52.142;5.408;2023-02-23T06:16:25;44.78;;;15.43;;
71763;SDS011;59602;52.142;5.408;2023-02-23T06:18:52;48.17;;;16.33;;
71763;SDS011;59602;52.142;5.408;2023-02-23T06:21:19;44.40;;;16.30;;
71763;SDS011;59602;52.142;5.408;2023-02-23T06:23:46;43.47;;;16.35;;
71763;SDS011;59602;52.142;5.408;2023-02-23T06:26:13;42.13;;;15.73;;
71763;SDS011;59602;52.142;5.408;2023-02-23T06:28:40;46.08;;;16.10;;
71763;SDS011;59602;52.142;5.408;2023-02-23T06:31:07;44.60;;;15.40;;
71763;SDS011;59602;52.142;5.408;2023-02-23T06:33:34;41.37;;;15.73;;
71763;SDS011;59602;52.142;5.408;2023-02-23T06:36:00;43.08;;;15.40;;
71763;SDS011;59602;52.142;5.408;2023-02-23T06:38:27;42.00;;;16.38;;
71763;SDS011;59602;52.142;5.408;2023-02-23T06:40:54;42.00;;;15.70;;
71763;SDS011;59602;52.142;5.408;2023-02-23T06:43:21;47.95;;;16.45;;
71763;SDS011;59602;52.142;5.408;2023-02-23T06:45:48;41.37;;;15.13;;
71763;SDS011;59602;52.142;5.408;2023-02-23T06:48:17;47.20;;;16.13;;
71763;SDS011;59602;52.142;5.408;2023-02-23T06:50:43;43.88;;;15.88;;
71763;SDS011;59602;52.142;5.408;2023-02-23T06:53:10;45.30;;;15.95;;
71763;SDS011;59602;52.142;5.408;2023-02-23T06:55:37;45.97;;;16.20;;
71763;SDS011;59602;52.142;5.408;2023-02-23T06:58:04;46.07;;;16.27;;
71763;SDS011;59602;52.142;5.408;2023-02-23T07:00:32;46.08;;;16.55;;
71763;SDS011;59602;52.142;5.408;2023-02-23T07:02:58;42.10;;;15.43;;
71763;SDS011;59602;52.142;5.408;2023-02-23T07:05:25;46.05;;;15.93;;
71763;SDS011;59602;52.142;5.408;2023-02-23T07:07:52;45.30;;;16.10;;
71763;SDS011;59602;52.142;5.408;2023-02-23T07:10:19;43.23;;;15.17;;
71763;SDS011;59602;52.142;5.408;2023-02-23T07:12:46;45.60;;;16.55;;
71763;SDS011;59602;52.142;5.408;2023-02-23T07:15:12;43.65;;;15.85;;
71763;SDS011;59602;52.142;5.408;2023-02-23T07:17:41;46.10;;;16.58;;
71763;SDS011;59602;52.142;5.408;2023-02-23T07:20:07;44.30;;;16.85;;
71763;SDS011;59602;52.142;5.408;2023-02-23T07:22:35;42.53;;;16.23;;
71763;SDS011;59602;52.142;5.408;2023-02-23T07:25:03;45.47;;;16.00;;
71763;SDS011;59602;52.142;5.408;2023-02-23T07:27:30;44.45;;;16.05;;
71763;SDS011;59602;52.142;5.408;2023-02-23T07:29:57;44.60;;;15.38;;
71763;SDS011;59602;52.142;5.408;2023-02-23T07:32:23;43.83;;;15.63;;
71763;SDS011;59602;52.142;5.408;2023-02-23T07:34:50;50.63;;;16.47;;
71763;SDS011;59602;52.142;5.408;2023-02-23T07:37:19;44.85;;;15.95;;
71763;SDS011;59602;52.142;5.408;2023-02-23T07:39:46;43.13;;;15.27;;
71763;SDS011;59602;52.142;5.408;2023-02-23T07:42:13;44.58;;;16.33;;
71763;SDS011;59602;52.142;5.408;2023-02-23T07:44:40;45.72;;;15.60;;
71763;SDS011;59602;52.142;5.408;2023-02-23T07:47:07;46.10;;;16.53;;
71763;SDS011;59602;52.142;5.408;2023-02-23T07:49:33;48.35;;;16.27;;
71763;SDS011;59602;52.142;5.408;2023-02-23T07:52:00;48.90;;;16.10;;
71763;SDS011;59602;52.142;5.408;2023-02-23T07:54:26;48.15;;;17.30;;
71763;SDS011;59602;52.142;5.408;2023-02-23T07:56:53;46.08;;;16.45;;
71763;SDS011;59602;52.142;5.408;2023-02-23T07:59:19;51.43;;;15.77;;
71763;SDS011;59602;52.142;5.408;2023-02-23T08:01:46;43.45;;;15.65;;
71763;SDS011;59602;52.142;5.408;2023-02-23T08:04:13;48.88;;;16.70;;
71763;SDS011;59602;52.142;5.408;2023-02-23T08:06:39;46.13;;;16.05;;
71763;SDS011;59602;52.142;5.408;2023-02-23T08:09:06;47.22;;;16.40;;
71763;SDS011;59602;52.142;5.408;2023-02-23T08:11:32;47.40;;;16.13;;
71763;SDS011;59602;52.142;5.408;2023-02-23T08:13:59;45.65;;;16.45;;
71763;SDS011;59602;52.142;5.408;2023-02-23T08:16:26;45.25;;;15.80;;
71763;SDS011;59602;52.142;5.408;2023-02-23T08:18:55;42.95;;;15.77;;
71763;SDS011;59602;52.142;5.408;2023-02-23T08:21:24;42.75;;;15.55;;
71763;SDS011;59602;52.142;5.408;2023-02-23T08:23:51;46.20;;;16.27;;
71763;SDS011;59602;52.142;5.408;2023-02-23T08:26:18;47.75;;;16.60;;
71763;SDS011;59602;52.142;5.408;2023-02-23T08:28:44;49.35;;;16.05;;
71763;SDS011;59602;52.142;5.408;2023-02-23T08:31:12;47.58;;;16.15;;
71763;SDS011;59602;52.142;5.408;2023-02-23T08:33:41;49.15;;;16.27;;
71763;SDS011;59602;52.142;5.408;2023-02-23T08:36:08;48.17;;;16.13;;
71763;SDS011;59602;52.142;5.408;2023-02-23T08:38:34;43.20;;;14.23;;
71763;SDS011;59602;52.142;5.408;2023-02-23T08:41:03;42.47;;;15.13;;
71763;SDS011;59602;52.142;5.408;2023-02-23T08:43:31;43.50;;;15.68;;
71763;SDS011;59602;52.142;5.408;2023-02-23T08:45:57;40.80;;;15.10;;
71763;SDS011;59602;52.142;5.408;2023-02-23T08:48:24;42.40;;;15.37;;
71763;SDS011;59602;52.142;5.408;2023-02-23T08:50:54;42.55;;;14.57;;
71763;SDS011;59602;52.142;5.408;2023-02-23T08:53:21;40.38;;;15.07;;
71763;SDS011;59602;52.142;5.408;2023-02-23T08:55:54;41.45;;;13.90;;
71763;SDS011;59602;52.142;5.408;2023-02-23T08:58:23;49.15;;;15.50;;
71763;SDS011;59602;52.142;5.408;2023-02-23T09:00:51;39.23;;;13.07;;
71763;SDS011;59602;52.142;5.408;2023-02-23T09:03:19;42.92;;;13.95;;
71763;SDS011;59602;52.142;5.408;2023-02-23T09:05:46;42.00;;;13.45;;
71763;SDS011;59602;52.142;5.408;2023-02-23T09:08:14;39.92;;;13.55;;
71763;SDS011;59602;52.142;5.408;2023-02-23T09:10:41;40.05;;;12.48;;
71763;SDS011;59602;52.142;5.408;2023-02-23T09:13:10;36.23;;;13.03;;
71763;SDS011;59602;52.142;5.408;2023-02-23T09:15:38;39.50;;;12.32;;
71763;SDS011;59602;52.142;5.408;2023-02-23T09:18:06;40.58;;;13.50;;
71763;SDS011;59602;52.142;5.408;2023-02-23T09:20:35;35.90;;;12.52;;
71763;SDS011;59602;52.142;5.408;2023-02-23T09:23:02;32.42;;;11.50;;
71763;SDS011;59602;52.142;5.408;2023-02-23T09:25:28;37.43;;;12.53;;
71763;SDS011;59602;52.142;5.408;2023-02-23T09:27:56;37.13;;;12.02;;
71763;SDS011;59602;52.142;5.408;2023-02-23T09:30:25;34.63;;;11.02;;
71763;SDS011;59602;52.142;5.408;2023-02-23T09:32:53;34.85;;;12.05;;
71763;SDS011;59602;52.142;5.408;2023-02-23T09:35:22;33.45;;;10.52;;
71763;SDS011;59602;52.142;5.408;2023-02-23T09:37:51;28.73;;;10.70;;
71763;SDS011;59602;52.142;5.408;2023-02-23T09:40:22;30.15;;;10.55;;
71763;SDS011;59602;52.142;5.408;2023-02-23T09:45:42;34.33;;;10.63;;
71763;SDS011;59602;52.142;5.408;2023-02-23T09:48:15;31.00;;;9.95;;
71763;SDS011;59602;52.142;5.408;2023-02-23T09:50:44;39.93;;;11.53;;
71763;SDS011;59602;52.142;5.408;2023-02-23T09:53:18;34.40;;;10.50;;
71763;SDS011;59602;52.142;5.408;2023-02-23T09:55:55;25.05;;;7.93;;
71763;SDS011;59602;52.142;5.408;2023-02-23T09:58:27;32.92;;;10.02;;
71763;SDS011;59602;52.142;5.408;2023-02-23T10:01:03;38.20;;;12.45;;
71763;SDS011;59602;52.142;5.408;2023-02-23T10:03:40;27.77;;;9.47;;
71763;SDS011;59602;52.142;5.408;2023-02-23T10:06:15;32.42;;;9.75;;
71763;SDS011;59602;52.142;5.408;2023-02-23T10:11:15;36.00;;;9.73;;
71763;SDS011;59602;52.142;5.408;2023-02-23T10:13:53;29.45;;;9.48;;
71763;SDS011;59602;52.142;5.408;2023-02-23T10:16:37;27.27;;;9.80;;
71763;SDS011;59602;52.142;5.408;2023-02-23T10:19:23;28.45;;;9.40;;
71763;SDS011;59602;52.142;5.408;2023-02-23T10:21:55;26.85;;;8.57;;
71763;SDS011;59602;52.142;5.408;2023-02-23T10:24:32;29.15;;;8.48;;
71763;SDS011;59602;52.142;5.408;2023-02-23T10:27:09;29.23;;;8.90;;
71763;SDS011;59602;52.142;5.408;2023-02-23T10:29:42;27.87;;;9.33;;
71763;SDS011;59602;52.142;5.408;2023-02-23T10:32:20;26.63;;;8.75;;
71763;SDS011;59602;52.142;5.408;2023-02-23T10:34:54;25.88;;;8.55;;
71763;SDS011;59602;52.142;5.408;2023-02-23T10:37:22;28.08;;;7.93;;
71763;SDS011;59602;52.142;5.408;2023-02-23T10:39:51;27.38;;;8.10;;
71763;SDS011;59602;52.142;5.408;2023-02-23T10:42:23;26.33;;;8.40;;
71763;SDS011;59602;52.142;5.408;2023-02-23T10:44:57;25.95;;;8.27;;
71763;SDS011;59602;52.142;5.408;2023-02-23T10:47:25;24.80;;;7.32;;
71763;SDS011;59602;52.142;5.408;2023-02-23T10:49:55;22.00;;;8.30;;
71763;SDS011;59602;52.142;5.408;2023-02-23T10:52:28;23.70;;;8.07;;
71763;SDS011;59602;52.142;5.408;2023-02-23T10:54:57;20.83;;;7.77;;
71763;SDS011;59602;52.142;5.408;2023-02-23T10:57:26;21.33;;;7.32;;
71763;SDS011;59602;52.142;5.408;2023-02-23T10:59:58;23.65;;;8.15;;
71763;SDS011;59602;52.142;5.408;2023-02-23T11:02:30;24.90;;;7.45;;
71763;SDS011;59602;52.142;5.408;2023-02-23T11:04:58;20.73;;;7.38;;
71763;SDS011;59602;52.142;5.408;2023-02-23T11:07:27;19.03;;;7.33;;
71763;SDS011;59602;52.142;5.408;2023-02-23T11:09:57;21.60;;;8.05;;
71763;SDS011;59602;52.142;5.408;2023-02-23T11:12:25;23.23;;;7.30;;
71763;SDS011;59602;52.142;5.408;2023-02-23T11:15:19;21.17;;;6.68;;
71763;SDS011;59602;52.142;5.408;2023-02-23T11:18:13;24.85;;;7.80;;
71763;SDS011;59602;52.142;5.408;2023-02-23T11:20:46;20.07;;;6.53;;
71763;SDS011;59602;52.142;5.408;2023-02-23T11:23:19;18.60;;;6.90;;
71763;SDS011;59602;52.142;5.408;2023-02-23T11:25:50;21.73;;;7.63;;
71763;SDS011;59602;52.142;5.408;2023-02-23T11:28:24;17.38;;;6.45;;
71763;SDS011;59602;52.142;5.408;2023-02-23T11:33:43;18.10;;;6.50;;
71763;SDS011;59602;52.142;5.408;2023-02-23T11:39:04;22.48;;;6.47;;
71763;SDS011;59602;52.142;5.408;2023-02-23T11:41:39;18.38;;;5.68;;
71763;SDS011;59602;52.142;5.408;2023-02-23T11:44:07;16.65;;;5.65;;
71763;SDS011;59602;52.142;5.408;2023-02-23T11:46:44;18.53;;;6.10;;
71763;SDS011;59602;52.142;5.408;2023-02-23T11:49:14;15.80;;;5.65;;
71763;SDS011;59602;52.142;5.408;2023-02-23T11:51:47;14.70;;;5.43;;
71763;SDS011;59602;52.142;5.408;2023-02-23T11:54:24;18.30;;;5.85;;
71763;SDS011;59602;52.142;5.408;2023-02-23T11:56:55;17.95;;;5.82;;
71763;SDS011;59602;52.142;5.408;2023-02-23T11:59:26;16.70;;;6.27;;
71763;SDS011;59602;52.142;5.408;2023-02-23T12:02:03;17.65;;;5.75;;
71763;SDS011;59602;52.142;5.408;2023-02-23T12:04:44;22.13;;;6.28;;
71763;SDS011;59602;52.142;5.408;2023-02-23T12:07:23;19.38;;;6.15;;
71763;SDS011;59602;52.142;5.408;2023-02-23T12:09:58;21.73;;;6.90;;
71763;SDS011;59602;52.142;5.408;2023-02-23T12:12:34;18.53;;;5.60;;
71763;SDS011;59602;52.142;5.408;2023-02-23T12:15:11;22.63;;;6.57;;
71763;SDS011;59602;52.142;5.408;2023-02-23T12:17:55;20.98;;;6.28;;
71763;SDS011;59602;52.142;5.408;2023-02-23T12:20:28;20.25;;;6.18;;
71763;SDS011;59602;52.142;5.408;2023-02-23T12:23:02;22.23;;;6.95;;
71763;SDS011;59602;52.142;5.408;2023-02-23T12:25:48;19.37;;;6.00;;
71763;SDS011;59602;52.142;5.408;2023-02-23T12:30:55;21.42;;;6.60;;
71763;SDS011;59602;52.142;5.408;2023-02-23T12:33:38;20.00;;;6.45;;
71763;SDS011;59602;52.142;5.408;2023-02-23T12:36:15;18.52;;;6.85;;
71763;SDS011;59602;52.142;5.408;2023-02-23T12:41:39;17.40;;;6.18;;
71763;SDS011;59602;52.142;5.408;2023-02-23T12:44:27;19.17;;;6.15;;
71763;SDS011;59602;52.142;5.408;2023-02-23T12:47:03;19.83;;;6.13;;
71763;SDS011;59602;52.142;5.408;2023-02-23T12:49:40;17.42;;;6.18;;
71763;SDS011;59602;52.142;5.408;2023-02-23T12:52:16;18.10;;;5.63;;
71763;SDS011;59602;52.142;5.408;2023-02-23T12:54:47;17.58;;;6.47;;
71763;SDS011;59602;52.142;5.408;2023-02-23T12:59:56;18.55;;;6.20;;
71763;SDS011;59602;52.142;5.408;2023-02-23T13:02:48;19.13;;;6.30;;
71763;SDS011;59602;52.142;5.408;2023-02-23T13:05:29;19.43;;;6.27;;
71763;SDS011;59602;52.142;5.408;2023-02-23T13:07:59;19.73;;;6.18;;
71763;SDS011;59602;52.142;5.408;2023-02-23T13:10:41;20.48;;;6.43;;
71763;SDS011;59602;52.142;5.408;2023-02-23T13:13:24;23.50;;;7.22;;
71763;SDS011;59602;52.142;5.408;2023-02-23T13:16:03;20.35;;;6.95;;
71763;SDS011;59602;52.142;5.408;2023-02-23T13:18:41;20.90;;;6.67;;
71763;SDS011;59602;52.142;5.408;2023-02-23T13:24:01;16.25;;;5.65;;
71763;SDS011;59602;52.142;5.408;2023-02-23T13:31:51;18.00;;;5.30;;
71763;SDS011;59602;52.142;5.408;2023-02-23T13:34:20;20.23;;;6.30;;
71763;SDS011;59602;52.142;5.408;2023-02-23T13:36:52;14.65;;;5.10;;
71763;SDS011;59602;52.142;5.408;2023-02-23T13:42:18;14.95;;;4.70;;
71763;SDS011;59602;52.142;5.408;2023-02-23T13:50:42;16.30;;;5.00;;
71763;SDS011;59602;52.142;5.408;2023-02-23T13:53:27;18.92;;;5.50;;
71763;SDS011;59602;52.142;5.408;2023-02-23T13:56:07;16.20;;;4.97;;
71763;SDS011;59602;52.142;5.408;2023-02-23T13:58:37;19.50;;;5.47;;
71763;SDS011;59602;52.142;5.408;2023-02-23T14:01:15;17.38;;;5.18;;
71763;SDS011;59602;52.142;5.408;2023-02-23T14:03:46;19.83;;;5.68;;
71763;SDS011;59602;52.142;5.408;2023-02-23T14:06:21;16.38;;;5.25;;
71763;SDS011;59602;52.142;5.408;2023-02-23T14:08:55;19.52;;;5.70;;
71763;SDS011;59602;52.142;5.408;2023-02-23T14:11:28;17.47;;;5.17;;
71763;SDS011;59602;52.142;5.408;2023-02-23T14:14:02;14.20;;;4.93;;
71763;SDS011;59602;52.142;5.408;2023-02-23T14:16:30;15.32;;;4.40;;
71763;SDS011;59602;52.142;5.408;2023-02-23T14:21:42;14.80;;;4.65;;
71763;SDS011;59602;52.142;5.408;2023-02-23T14:24:12;16.13;;;5.03;;
71763;SDS011;59602;52.142;5.408;2023-02-23T14:29:29;16.83;;;4.85;;
71763;SDS011;59602;52.142;5.408;2023-02-23T14:32:00;17.88;;;5.50;;
71763;SDS011;59602;52.142;5.408;2023-02-23T14:34:49;16.80;;;6.07;;
71763;SDS011;59602;52.142;5.408;2023-02-23T14:37:22;18.07;;;5.57;;
71763;SDS011;59602;52.142;5.408;2023-02-23T14:40:03;22.10;;;7.10;;
71763;SDS011;59602;52.142;5.408;2023-02-23T14:42:37;19.15;;;5.82;;
71763;SDS011;59602;52.142;5.408;2023-02-23T14:45:15;19.23;;;5.90;;
71763;SDS011;59602;52.142;5.408;2023-02-23T14:47:46;23.08;;;6.45;;
71763;SDS011;59602;52.142;5.408;2023-02-23T14:50:21;21.50;;;6.10;;
71763;SDS011;59602;52.142;5.408;2023-02-23T14:52:54;23.45;;;7.53;;
71763;SDS011;59602;52.142;5.408;2023-02-23T14:55:24;21.02;;;6.85;;
71763;SDS011;59602;52.142;5.408;2023-02-23T14:57:54;21.67;;;7.85;;
71763;SDS011;59602;52.142;5.408;2023-02-23T15:00:24;24.45;;;8.48;;
71763;SDS011;59602;52.142;5.408;2023-02-23T15:02:59;28.37;;;8.47;;
71763;SDS011;59602;52.142;5.408;2023-02-23T15:05:30;26.63;;;9.25;;
71763;SDS011;59602;52.142;5.408;2023-02-23T15:07:59;33.75;;;9.50;;
71763;SDS011;59602;52.142;5.408;2023-02-23T15:10:34;31.75;;;9.15;;
71763;SDS011;59602;52.142;5.408;2023-02-23T15:13:07;29.38;;;9.15;;
71763;SDS011;59602;52.142;5.408;2023-02-23T15:15:39;34.40;;;9.93;;
71763;SDS011;59602;52.142;5.408;2023-02-23T15:18:13;28.90;;;8.05;;
71763;SDS011;59602;52.142;5.408;2023-02-23T15:20:47;16.73;;;5.28;;
71763;SDS011;59602;52.142;5.408;2023-02-23T15:23:15;13.23;;;3.60;;
71763;SDS011;59602;52.142;5.408;2023-02-23T15:25:44;14.20;;;2.67;;
71763;SDS011;59602;52.142;5.408;2023-02-23T15:28:21;9.17;;;2.20;;
71763;SDS011;59602;52.142;5.408;2023-02-23T15:30:52;12.23;;;2.22;;
71763;SDS011;59602;52.142;5.408;2023-02-23T15:33:22;12.63;;;1.80;;
71763;SDS011;59602;52.142;5.408;2023-02-23T15:38:49;16.23;;;2.03;;
71763;SDS011;59602;52.142;5.408;2023-02-23T15:41:26;11.23;;;1.30;;
71763;SDS011;59602;52.142;5.408;2023-02-23T15:44:02;14.23;;;1.70;;
71763;SDS011;59602;52.142;5.408;2023-02-23T15:46:37;17.08;;;1.85;;
71763;SDS011;59602;52.142;5.408;2023-02-23T15:49:09;17.23;;;2.00;;
71763;SDS011;59602;52.142;5.408;2023-02-23T15:51:40;20.23;;;1.60;;
71763;SDS011;59602;52.142;5.408;2023-02-23T15:54:18;16.57;;;1.40;;
71763;SDS011;59602;52.142;5.408;2023-02-23T15:56:49;10.57;;;0.93;;
71763;SDS011;59602;52.142;5.408;2023-02-23T15:59:26;12.13;;;1.00;;
71763;SDS011;59602;52.142;5.408;2023-02-23T16:01:57;5.63;;;0.82;;